createdAt,value
2022-10-08T00:01:49.013Z,98.45
2022-10-08T00:04:17.462Z,89.50
2022-10-08T00:06:46.013Z,37.30
2022-10-08T00:09:14.344Z,53.30
2022-10-08T00:11:43.372Z,74.03
2022-10-08T00:14:13.383Z,72.80
2022-10-08T00:16:43.267Z,93.40
2022-10-08T00:19:14.145Z,72.75
2022-10-08T00:21:45.133Z,100.45
2022-10-08T00:24:15.722Z,58.05
2022-10-08T00:26:45.606Z,58.72
2022-10-08T00:29:17.405Z,65.00
2022-10-08T00:31:47.886Z,73.15
2022-10-08T00:34:19.313Z,90.93
2022-10-08T00:36:49.494Z,97.28
2022-10-08T00:39:20.914Z,79.60
2022-10-08T00:41:52.356Z,239.00
2022-10-08T00:44:53.784Z,131.98
2022-10-08T00:47:40.280Z,100.22
2022-10-08T00:50:13.652Z,71.65
2022-10-08T00:52:45.294Z,62.20
2022-10-08T00:55:15.663Z,79.57
2022-10-08T00:57:45.107Z,67.97
2022-10-08T01:00:18.155Z,74.97
2022-10-08T01:02:48.477Z,87.57
2022-10-08T01:05:20.863Z,106.07
2022-10-08T01:07:56.442Z,35.10
2022-10-08T01:10:33.696Z,38.60
2022-10-08T01:13:14.992Z,38.95
2022-10-08T01:15:54.185Z,34.00
2022-10-08T01:18:29.142Z,30.27
2022-10-08T01:21:05.105Z,34.83
2022-10-08T01:23:59.958Z,48.22
2022-10-08T01:26:48.935Z,69.53
2022-10-08T01:29:23.089Z,53.90
2022-10-08T01:34:27.237Z,38.55
2022-10-08T01:36:58.482Z,51.20
2022-10-08T01:39:32.807Z,31.40
2022-10-08T01:42:04.302Z,37.78
2022-10-08T01:44:39.642Z,37.63
2022-10-08T01:47:13.759Z,38.83
2022-10-08T01:52:15.564Z,33.97
2022-10-08T01:54:47.358Z,66.88
2022-10-08T01:57:15.944Z,62.28
2022-10-08T01:59:50.516Z,93.97
2022-10-08T02:02:22.430Z,264.52
2022-10-08T02:04:53.470Z,54.15
2022-10-08T02:07:24.527Z,49.67
2022-10-08T02:09:54.778Z,93.97
2022-10-08T02:12:24.548Z,57.72
2022-10-08T02:14:57.123Z,55.10
2022-10-08T02:17:33.616Z,83.95
2022-10-08T02:20:07.362Z,63.58
2022-10-08T02:22:39.428Z,67.95
2022-10-08T02:25:14.505Z,45.10
2022-10-08T02:27:53.313Z,34.53
2022-10-08T02:30:24.645Z,30.00
2022-10-08T02:32:59.443Z,46.05
2022-10-08T02:35:33.548Z,25.60
2022-10-08T02:40:35.076Z,33.25
2022-10-08T02:43:08.747Z,78.78
2022-10-08T02:45:43.490Z,59.78
2022-10-08T02:48:17.730Z,60.08
2022-10-08T02:50:49.603Z,49.40
2022-10-08T02:53:19.857Z,46.75
2022-10-08T02:55:55.690Z,43.45
2022-10-08T02:58:24.089Z,66.07
2022-10-08T03:00:58.528Z,58.97
2022-10-08T03:03:33.245Z,74.15
2022-10-08T03:06:05.082Z,78.35
2022-10-08T03:08:34.513Z,119.65
2022-10-08T03:11:03.773Z,130.55
2022-10-08T03:13:37.568Z,74.10
2022-10-08T03:16:09.592Z,52.13
2022-10-08T03:18:39.363Z,47.08
2022-10-08T03:21:10.205Z,41.50
2022-10-08T03:23:38.324Z,31.38
2022-10-08T03:26:06.760Z,31.63
2022-10-08T03:28:35.111Z,31.45
2022-10-08T03:31:07.273Z,29.27
2022-10-08T03:33:35.942Z,30.60
2022-10-08T03:36:04.278Z,32.17
2022-10-08T03:38:35.849Z,29.30
2022-10-08T03:41:03.965Z,29.25
2022-10-08T03:43:33.433Z,29.05
2022-10-08T03:46:01.770Z,30.27
2022-10-08T03:48:31.688Z,28.77
2022-10-08T03:51:01.590Z,30.55
2022-10-08T03:53:33.312Z,31.02
2022-10-08T03:56:02.626Z,32.13
2022-10-08T03:58:31.149Z,31.92
2022-10-08T04:00:59.483Z,34.88
2022-10-08T04:03:28.520Z,30.75
2022-10-08T04:05:58.805Z,28.67
2022-10-08T04:08:27.807Z,30.40
2022-10-08T04:10:56.305Z,30.38
2022-10-08T04:13:24.787Z,27.45
2022-10-08T04:15:53.052Z,28.02
2022-10-08T04:18:21.180Z,28.08
2022-10-08T04:20:49.519Z,28.55
2022-10-08T04:23:19.375Z,26.77
2022-10-08T04:25:52.138Z,26.65
2022-10-08T04:28:21.597Z,28.17
2022-10-08T04:30:57.336Z,25.48
2022-10-08T04:33:26.297Z,27.98
2022-10-08T04:35:59.104Z,28.35
2022-10-08T04:38:30.114Z,28.55
2022-10-08T04:41:06.772Z,25.98
2022-10-08T04:43:35.047Z,28.25
2022-10-08T04:46:03.637Z,27.80
2022-10-08T04:48:32.337Z,26.92
2022-10-08T04:51:04.128Z,28.48
2022-10-08T04:53:36.084Z,23.38
2022-10-08T04:56:12.428Z,24.55
2022-10-08T04:58:40.780Z,23.65
2022-10-08T05:01:11.381Z,25.63
2022-10-08T05:03:41.150Z,26.85
2022-10-08T05:06:09.971Z,24.85
2022-10-08T05:08:39.715Z,24.25
2022-10-08T05:11:08.428Z,24.48
2022-10-08T05:13:37.044Z,24.85
2022-10-08T05:16:06.683Z,25.23
2022-10-08T05:18:35.565Z,25.48
2022-10-08T05:21:04.661Z,25.80
2022-10-08T05:23:33.351Z,26.67
2022-10-08T05:26:03.548Z,25.98
2022-10-08T05:28:31.876Z,23.63
2022-10-08T05:31:03.394Z,24.75
2022-10-08T05:33:31.580Z,25.00
2022-10-08T05:36:03.857Z,24.63
2022-10-08T05:38:34.953Z,23.42
2022-10-08T05:41:13.282Z,23.25
2022-10-08T05:43:42.159Z,23.80
2022-10-08T05:46:10.722Z,22.60
2022-10-08T05:48:39.493Z,22.15
2022-10-08T05:51:08.896Z,21.33
2022-10-08T05:53:38.058Z,21.80
2022-10-08T05:56:08.795Z,20.90
2022-10-08T05:58:40.043Z,22.48
2022-10-08T06:01:10.073Z,22.20
2022-10-08T06:03:38.158Z,22.23
2022-10-08T06:06:08.407Z,20.77
2022-10-08T06:08:37.833Z,21.55
2022-10-08T06:11:07.428Z,21.23
2022-10-08T06:13:37.414Z,21.92
2022-10-08T06:16:08.428Z,20.25
2022-10-08T06:18:38.227Z,20.55
2022-10-08T06:21:08.221Z,20.60
2022-10-08T06:23:37.028Z,18.95
2022-10-08T06:26:05.625Z,20.45
2022-10-08T06:28:35.652Z,19.83
2022-10-08T06:31:06.585Z,20.75
2022-10-08T06:33:35.134Z,19.35
2022-10-08T06:36:05.597Z,20.08
2022-10-08T06:38:33.848Z,19.33
2022-10-08T06:41:02.262Z,20.80
2022-10-08T06:43:30.499Z,19.27
2022-10-08T06:46:00.309Z,20.27
2022-10-08T06:48:29.827Z,19.63
2022-10-08T06:51:01.317Z,19.63
2022-10-08T06:53:29.671Z,18.77
2022-10-08T06:55:59.160Z,18.92
2022-10-08T06:58:27.544Z,18.65
2022-10-08T07:01:03.791Z,18.10
2022-10-08T07:03:34.149Z,16.67
2022-10-08T07:06:03.118Z,16.77
2022-10-08T07:08:31.932Z,17.17
2022-10-08T07:11:04.933Z,18.08
2022-10-08T07:13:33.155Z,18.33
2022-10-08T07:16:05.679Z,18.15
2022-10-08T07:18:38.050Z,18.00
2022-10-08T07:21:07.346Z,17.45
2022-10-08T07:23:35.836Z,18.23
2022-10-08T07:26:10.115Z,17.90
2022-10-08T07:28:41.502Z,17.88
2022-10-08T07:31:14.266Z,16.95
2022-10-08T07:33:43.924Z,16.20
2022-10-08T07:36:14.238Z,17.17
2022-10-08T07:38:43.429Z,18.23
2022-10-08T07:41:13.006Z,15.60
2022-10-08T07:43:43.359Z,16.02
2022-10-08T07:46:13.067Z,15.43
2022-10-08T07:48:42.147Z,16.27
2022-10-08T07:51:14.033Z,15.73
2022-10-08T07:53:43.151Z,16.45
2022-10-08T07:56:13.260Z,19.52
2022-10-08T07:58:41.930Z,19.60
2022-10-08T08:01:16.060Z,19.27
2022-10-08T08:03:44.762Z,19.23
2022-10-08T08:06:15.901Z,19.58
2022-10-08T08:08:47.113Z,17.40
2022-10-08T08:11:18.511Z,19.20
2022-10-08T08:13:47.470Z,16.98
2022-10-08T08:16:18.012Z,17.38
2022-10-08T08:18:47.845Z,16.83
2022-10-08T08:21:19.812Z,16.73
2022-10-08T08:23:49.892Z,18.45
2022-10-08T08:26:20.057Z,18.73
2022-10-08T08:28:52.041Z,16.48
2022-10-08T08:31:22.508Z,17.35
2022-10-08T08:33:52.316Z,15.57
2022-10-08T08:36:25.971Z,15.15
2022-10-08T08:38:54.432Z,16.10
2022-10-08T08:41:36.931Z,15.98
2022-10-08T08:44:11.805Z,16.42
2022-10-08T08:46:43.558Z,20.83
2022-10-08T08:49:21.462Z,15.40
2022-10-08T08:51:51.075Z,14.32
2022-10-08T08:54:19.255Z,13.52
2022-10-08T08:56:48.466Z,13.55
2022-10-08T08:59:27.374Z,11.60
2022-10-08T09:02:00.872Z,9.48
2022-10-08T09:04:44.390Z,10.00
2022-10-08T09:07:18.335Z,8.70
2022-10-08T09:09:49.573Z,9.32
2022-10-08T09:12:21.326Z,8.30
2022-10-08T09:14:54.753Z,8.10
2022-10-08T09:17:30.434Z,6.90
2022-10-08T09:19:59.121Z,7.57
2022-10-08T09:22:31.168Z,6.45
2022-10-08T09:25:01.984Z,6.60
2022-10-08T09:27:49.078Z,5.78
2022-10-08T09:30:39.028Z,7.32
2022-10-08T09:33:29.552Z,5.93
2022-10-08T09:35:57.723Z,5.63
2022-10-08T09:38:29.054Z,5.47
2022-10-08T09:41:05.603Z,5.70
2022-10-08T09:43:34.643Z,5.70
2022-10-08T09:46:11.990Z,5.80
2022-10-08T09:48:41.849Z,5.40
2022-10-08T09:51:16.266Z,5.07
2022-10-08T09:53:48.959Z,3.90
2022-10-08T09:56:27.571Z,4.22
2022-10-08T09:59:00.061Z,3.03
2022-10-08T10:01:31.562Z,3.83
2022-10-08T10:04:02.414Z,3.30
2022-10-08T10:06:33.278Z,3.03
2022-10-08T10:09:13.324Z,3.15
2022-10-08T10:11:48.176Z,2.75
2022-10-08T10:14:25.110Z,2.83
2022-10-08T10:17:01.407Z,3.00
2022-10-08T10:19:34.349Z,3.00
2022-10-08T10:22:07.379Z,3.28
2022-10-08T10:24:54.786Z,3.17
2022-10-08T10:27:30.771Z,2.72
2022-10-08T10:30:07.097Z,3.15
2022-10-08T10:32:40.442Z,2.72
2022-10-08T10:35:16.906Z,2.60
2022-10-08T10:37:50.275Z,2.83
2022-10-08T10:40:44.284Z,2.65
2022-10-08T10:43:28.531Z,3.00
2022-10-08T10:46:04.966Z,2.58
2022-10-08T10:48:33.377Z,2.95
2022-10-08T10:51:12.978Z,2.78
2022-10-08T10:53:54.732Z,2.85
2022-10-08T10:56:27.112Z,2.33
2022-10-08T10:59:18.152Z,2.22
2022-10-08T11:01:54.133Z,2.22
2022-10-08T11:04:33.443Z,2.67
2022-10-08T11:07:07.050Z,2.60
2022-10-08T11:09:45.449Z,2.50
2022-10-08T11:12:35.801Z,2.03
2022-10-08T11:15:15.082Z,1.83
2022-10-08T11:18:00.246Z,2.67
2022-10-08T11:20:55.657Z,2.92
2022-10-08T11:23:39.509Z,2.20
2022-10-08T11:26:22.334Z,2.10
2022-10-08T11:29:04.411Z,1.95
2022-10-08T11:31:42.625Z,8.23
2022-10-08T11:34:24.183Z,2.40
2022-10-08T11:37:04.422Z,2.00
2022-10-08T11:39:42.839Z,2.15
2022-10-08T11:42:19.337Z,2.00
2022-10-08T11:44:49.060Z,1.85
2022-10-08T11:47:36.568Z,1.50
2022-10-08T11:50:06.251Z,2.08
2022-10-08T11:52:36.102Z,1.63
2022-10-08T11:55:04.759Z,1.92
2022-10-08T11:58:06.015Z,1.25
2022-10-08T12:00:40.009Z,2.15
2022-10-08T12:03:22.858Z,2.38
2022-10-08T12:05:53.872Z,2.95
2022-10-08T12:08:54.961Z,1.95
2022-10-08T12:11:49.400Z,1.80
2022-10-08T12:14:45.493Z,1.42
2022-10-08T12:17:15.711Z,1.50
2022-10-08T12:20:18.919Z,1.55
2022-10-08T12:23:07.231Z,1.60
2022-10-08T12:26:11.153Z,2.30
2022-10-08T12:28:50.738Z,2.28
2022-10-08T12:31:31.046Z,2.20
2022-10-08T12:34:03.214Z,2.47
2022-10-08T12:36:53.679Z,2.42
2022-10-08T12:39:35.264Z,2.15
2022-10-08T12:42:15.744Z,2.03
2022-10-08T12:44:59.455Z,1.30
2022-10-08T12:47:39.769Z,1.40
2022-10-08T12:50:31.139Z,1.23
2022-10-08T12:53:01.282Z,1.58
2022-10-08T12:55:37.714Z,1.75
2022-10-08T12:58:06.670Z,2.08
2022-10-08T13:00:37.481Z,1.80
2022-10-08T13:03:07.917Z,1.38
2022-10-08T13:05:39.771Z,1.58
2022-10-08T13:08:29.651Z,1.50
2022-10-08T13:10:58.650Z,1.30
2022-10-08T13:13:45.050Z,1.20
2022-10-08T13:16:17.165Z,1.40
2022-10-08T13:18:47.069Z,1.35
2022-10-08T13:21:37.474Z,1.63
2022-10-08T13:24:38.367Z,1.40
2022-10-08T13:27:08.081Z,1.40
2022-10-08T13:29:38.429Z,1.67
2022-10-08T13:32:17.634Z,1.70
2022-10-08T13:34:49.335Z,2.20
2022-10-08T13:37:26.870Z,1.50
2022-10-08T13:39:58.236Z,1.67
2022-10-08T13:42:29.568Z,1.52
2022-10-08T13:45:00.713Z,1.95
2022-10-08T13:47:29.919Z,1.48
2022-10-08T13:50:01.960Z,1.45
2022-10-08T13:52:32.515Z,1.58
2022-10-08T13:55:05.572Z,1.90
2022-10-08T13:57:33.890Z,2.00
2022-10-08T14:00:02.058Z,1.80
2022-10-08T14:02:30.139Z,2.03
2022-10-08T14:04:58.348Z,1.02
2022-10-08T14:07:29.462Z,1.52
2022-10-08T14:10:00.846Z,1.05
2022-10-08T14:12:34.754Z,1.40
2022-10-08T14:15:03.359Z,1.08
2022-10-08T14:17:32.747Z,1.23
2022-10-08T14:20:00.900Z,1.08
2022-10-08T14:22:29.487Z,1.30
2022-10-08T14:24:58.180Z,1.25
2022-10-08T14:27:26.503Z,1.48
2022-10-08T14:29:56.373Z,1.30
2022-10-08T14:32:24.489Z,1.20
2022-10-08T14:34:53.007Z,1.70
2022-10-08T14:37:21.205Z,1.48
2022-10-08T14:39:49.613Z,1.38
2022-10-08T14:42:18.333Z,1.25
2022-10-08T14:44:47.920Z,1.77
2022-10-08T14:47:17.614Z,1.20
2022-10-08T14:49:45.887Z,2.03
2022-10-08T14:52:14.677Z,1.20
2022-10-08T14:54:42.803Z,1.00
2022-10-08T14:57:11.219Z,1.27
2022-10-08T14:59:40.351Z,1.10
2022-10-08T15:02:10.973Z,1.55
2022-10-08T15:04:40.957Z,1.08
2022-10-08T15:07:09.074Z,1.55
2022-10-08T15:09:40.725Z,2.13
2022-10-08T15:12:09.116Z,1.90
2022-10-08T15:14:38.490Z,1.10
2022-10-08T15:17:06.967Z,1.30
2022-10-08T15:19:35.598Z,1.27
2022-10-08T15:22:05.277Z,1.98
2022-10-08T15:24:33.283Z,1.30
2022-10-08T15:27:01.393Z,1.45
2022-10-08T15:29:29.644Z,1.38
2022-10-08T15:31:57.860Z,1.20
2022-10-08T15:34:26.408Z,1.92
2022-10-08T15:36:56.736Z,1.65
2022-10-08T15:39:26.614Z,1.30
2022-10-08T15:41:56.623Z,1.13
2022-10-08T15:44:27.235Z,1.73
2022-10-08T15:46:59.902Z,1.08
2022-10-08T15:49:31.479Z,1.70
2022-10-08T15:51:59.897Z,1.15
2022-10-08T15:54:29.332Z,1.17
2022-10-08T15:56:57.822Z,1.67
2022-10-08T15:59:25.940Z,1.50
2022-10-08T16:01:54.112Z,1.80
2022-10-08T16:04:22.286Z,1.67
2022-10-08T16:06:50.316Z,1.52
2022-10-08T16:09:20.831Z,1.20
2022-10-08T16:11:51.326Z,1.30
2022-10-08T16:14:22.378Z,1.70
2022-10-08T16:16:51.597Z,2.08
2022-10-08T16:19:22.036Z,1.98
2022-10-08T16:21:52.172Z,1.88
2022-10-08T16:24:20.784Z,1.48
2022-10-08T16:26:50.330Z,1.65
2022-10-08T16:29:19.817Z,1.45
2022-10-08T16:31:49.026Z,2.17
2022-10-08T16:34:18.930Z,1.85
2022-10-08T16:36:48.398Z,2.08
2022-10-08T16:39:19.369Z,1.60
2022-10-08T16:41:49.690Z,1.60
2022-10-08T16:44:20.411Z,2.08
2022-10-08T16:46:51.882Z,2.20
2022-10-08T16:49:25.493Z,2.40
2022-10-08T16:54:23.695Z,3.85
2022-10-08T16:56:53.313Z,2.47
2022-10-08T16:59:23.415Z,2.38
2022-10-08T17:01:54.656Z,3.75
2022-10-08T17:04:24.091Z,3.83
2022-10-08T17:06:53.082Z,3.40
2022-10-08T17:09:21.844Z,2.85
2022-10-08T17:11:50.377Z,2.92
2022-10-08T17:14:20.387Z,3.47
2022-10-08T17:16:51.754Z,3.42
2022-10-08T17:19:20.980Z,4.45
2022-10-08T17:21:49.615Z,4.63
2022-10-08T17:24:18.134Z,3.85
2022-10-08T17:26:47.127Z,3.90
2022-10-08T17:29:15.478Z,3.30
2022-10-08T17:31:45.397Z,2.50
2022-10-08T17:34:14.325Z,3.15
2022-10-08T17:36:44.359Z,3.55
2022-10-08T17:39:15.299Z,4.88
2022-10-08T17:41:44.365Z,3.67
2022-10-08T17:44:13.253Z,4.50
2022-10-08T17:46:45.728Z,4.15
2022-10-08T17:49:17.502Z,3.90
2022-10-08T17:51:46.643Z,4.40
2022-10-08T17:54:17.251Z,8.18
2022-10-08T17:56:45.904Z,17.63
2022-10-08T17:59:16.214Z,9.65
2022-10-08T18:01:45.644Z,11.70
2022-10-08T18:04:17.446Z,7.15
2022-10-08T18:06:47.671Z,5.47
2022-10-08T18:09:17.438Z,6.65
2022-10-08T18:11:48.519Z,6.18
2022-10-08T18:14:17.722Z,5.50
2022-10-08T18:16:48.391Z,4.93
2022-10-08T18:19:19.335Z,4.82
2022-10-08T18:21:47.911Z,5.28
2022-10-08T18:24:17.131Z,5.07
2022-10-08T18:26:45.665Z,5.28
2022-10-08T18:29:15.507Z,6.25
2022-10-08T18:31:45.073Z,5.82
2022-10-08T18:34:15.636Z,6.18
2022-10-08T18:36:46.079Z,5.63
2022-10-08T18:39:16.305Z,5.07
2022-10-08T18:41:46.622Z,5.50
2022-10-08T18:44:17.366Z,5.72
2022-10-08T18:46:45.769Z,4.88
2022-10-08T18:49:15.459Z,5.15
2022-10-08T18:51:45.692Z,5.47
2022-10-08T18:54:13.991Z,5.78
2022-10-08T18:56:42.966Z,6.63
2022-10-08T18:59:13.778Z,6.28
2022-10-08T19:01:44.770Z,7.82
2022-10-08T19:04:15.181Z,6.70
2022-10-08T19:06:46.613Z,7.38
2022-10-08T19:09:15.239Z,6.32
2022-10-08T19:11:46.135Z,7.13
2022-10-08T19:14:16.849Z,5.95
2022-10-08T19:16:46.080Z,6.30
2022-10-08T19:19:16.214Z,6.78
2022-10-08T19:21:47.293Z,6.20
2022-10-08T19:24:17.470Z,6.68
2022-10-08T19:26:46.932Z,6.53
2022-10-08T19:29:18.192Z,6.97
2022-10-08T19:31:48.799Z,6.68
2022-10-08T19:34:19.400Z,5.78
2022-10-08T19:36:50.384Z,7.32
2022-10-08T19:39:21.103Z,5.80
2022-10-08T19:41:50.014Z,7.85
2022-10-08T19:44:18.541Z,7.45
2022-10-08T19:46:47.294Z,6.93
2022-10-08T19:49:16.192Z,7.53
2022-10-08T19:51:44.617Z,7.18
2022-10-08T19:54:14.996Z,6.93
2022-10-08T19:56:43.591Z,7.22
2022-10-08T19:59:13.053Z,7.10
2022-10-08T20:01:42.918Z,7.65
2022-10-08T20:04:13.756Z,8.90
2022-10-08T20:06:43.323Z,7.22
2022-10-08T20:09:14.672Z,7.38
2022-10-08T20:11:43.979Z,8.00
2022-10-08T20:14:13.293Z,6.78
2022-10-08T20:16:43.338Z,6.25
2022-10-08T20:19:16.882Z,5.80
2022-10-08T20:21:46.236Z,5.93
2022-10-08T20:24:16.646Z,6.20
2022-10-08T20:26:45.846Z,5.47
2022-10-08T20:29:15.545Z,6.07
2022-10-08T20:31:45.179Z,7.05
2022-10-08T20:34:17.778Z,6.38
2022-10-08T20:36:46.966Z,6.25
2022-10-08T20:39:18.525Z,5.88
2022-10-08T20:41:46.990Z,6.50
2022-10-08T20:44:16.313Z,6.38
2022-10-08T20:46:45.275Z,6.85
2022-10-08T20:49:14.925Z,12.25
2022-10-08T20:51:44.670Z,12.48
2022-10-08T20:54:15.033Z,18.02
2022-10-08T20:56:45.643Z,33.40
2022-10-08T20:59:16.959Z,45.58
2022-10-08T21:01:46.065Z,16.17
2022-10-08T21:04:14.402Z,12.18
2022-10-08T21:06:44.966Z,10.90
2022-10-08T21:09:14.569Z,9.63
2022-10-08T21:11:45.924Z,10.55
2022-10-08T21:14:17.374Z,11.90
2022-10-08T21:16:46.510Z,37.88
2022-10-08T21:19:16.307Z,30.05
2022-10-08T21:21:44.690Z,164.48
2022-10-08T21:24:12.935Z,91.10
2022-10-08T21:26:42.383Z,67.35
2022-10-08T21:29:13.617Z,34.75
2022-10-08T21:31:43.351Z,38.38
2022-10-08T21:34:13.244Z,48.88
2022-10-08T21:36:44.776Z,32.70
2022-10-08T21:39:18.382Z,34.00
2022-10-08T21:41:47.439Z,43.40
2022-10-08T21:44:17.120Z,68.30
2022-10-08T21:46:49.214Z,39.42
2022-10-08T21:49:20.850Z,171.20
2022-10-08T21:51:49.204Z,202.77
2022-10-08T21:54:18.239Z,204.50
2022-10-08T21:56:46.683Z,125.03
2022-10-08T21:59:17.877Z,87.97
2022-10-08T22:01:47.765Z,118.30
2022-10-08T22:04:17.832Z,169.45
2022-10-08T22:06:48.335Z,73.20
2022-10-08T22:09:19.139Z,60.45
2022-10-08T22:11:48.197Z,86.00
2022-10-08T22:14:19.034Z,70.07
2022-10-08T22:16:48.523Z,82.57
2022-10-08T22:19:17.490Z,63.25
2022-10-08T22:21:46.213Z,29.80
2022-10-08T22:24:16.202Z,49.17
2022-10-08T22:26:46.520Z,138.32
2022-10-08T22:29:15.448Z,129.98
2022-10-08T22:31:46.145Z,145.20
2022-10-08T22:34:14.745Z,118.78
2022-10-08T22:36:45.208Z,69.13
2022-10-08T22:39:14.091Z,53.20
2022-10-08T22:41:42.762Z,20.35
2022-10-08T22:44:11.400Z,45.75
2022-10-08T22:46:41.298Z,65.47
2022-10-08T22:49:12.788Z,88.07
2022-10-08T22:51:41.739Z,127.05
2022-10-08T22:54:10.661Z,279.63
2022-10-08T22:56:39.309Z,135.32
2022-10-08T22:59:08.056Z,183.10
2022-10-08T23:01:36.531Z,76.32
2022-10-08T23:04:05.401Z,67.07
2022-10-08T23:06:36.327Z,37.88
2022-10-08T23:09:06.950Z,34.42
2022-10-08T23:11:35.953Z,146.70
2022-10-08T23:14:04.646Z,104.63
2022-10-08T23:16:35.100Z,48.13
2022-10-08T23:19:09.088Z,34.10
2022-10-08T23:21:42.535Z,63.70
2022-10-08T23:24:13.165Z,37.40
2022-10-08T23:26:41.603Z,17.77
2022-10-08T23:29:12.426Z,22.27
2022-10-08T23:31:40.872Z,20.23
2022-10-08T23:34:10.054Z,18.05
2022-10-08T23:36:41.933Z,14.75
2022-10-08T23:39:14.146Z,13.98
2022-10-08T23:41:42.863Z,13.13
2022-10-08T23:44:12.419Z,25.02
2022-10-08T23:46:40.884Z,51.80
2022-10-08T23:49:09.443Z,54.25
2022-10-08T23:51:39.402Z,28.90
2022-10-08T23:54:09.109Z,17.83
2022-10-08T23:56:37.494Z,14.35
2022-10-08T23:59:05.774Z,14.70
